sensor_id;sensor_type;location;lat;lon;timestamp;temperature;humidity
51801;DHT22;37855;53.204;6.568;2022-09-11T00:00:51;15.90;99.90
51801;DHT22;37855;53.204;6.568;2022-09-11T00:03:21;15.90;99.90
51801;DHT22;37855;53.204;6.568;2022-09-11T00:05:49;15.90;99.90
51801;DHT22;37855;53.204;6.568;2022-09-11T00:08:17;15.90;99.90
51801;DHT22;37855;53.204;6.568;2022-09-11T00:10:45;16.00;99.90
51801;DHT22;37855;53.204;6.568;2022-09-11T00:13:16;16.00;99.90
51801;DHT22;37855;53.204;6.568;2022-09-11T00:15:47;16.00;99.90
51801;DHT22;37855;53.204;6.568;2022-09-11T00:18:16;15.90;99.90
51801;DHT22;37855;53.204;6.568;2022-09-11T00:20:53;16.00;99.90
51801;DHT22;37855;53.204;6.568;2022-09-11T00:23:24;15.90;99.90
51801;DHT22;37855;53.204;6.568;2022-09-11T00:25:50;15.90;99.90
51801;DHT22;37855;53.204;6.568;2022-09-11T00:28:18;15.90;99.90
51801;DHT22;37855;53.204;6.568;2022-09-11T00:30:45;15.90;99.90
51801;DHT22;37855;53.204;6.568;2022-09-11T00:33:12;15.90;99.90
51801;DHT22;37855;53.204;6.568;2022-09-11T00:35:39;15.90;99.90
51801;DHT22;37855;53.204;6.568;2022-09-11T00:38:06;15.90;99.90
51801;DHT22;37855;53.204;6.568;2022-09-11T00:40:43;15.80;99.90
51801;DHT22;37855;53.204;6.568;2022-09-11T00:43:09;15.90;99.90
51801;DHT22;37855;53.204;6.568;2022-09-11T00:45:37;15.80;99.90
51801;DHT22;37855;53.204;6.568;2022-09-11T00:48:03;15.80;99.90
51801;DHT22;37855;53.204;6.568;2022-09-11T00:50:30;15.90;99.90
51801;DHT22;37855;53.204;6.568;2022-09-11T00:53:02;15.80;99.90
51801;DHT22;37855;53.204;6.568;2022-09-11T00:55:31;15.80;99.90
51801;DHT22;37855;53.204;6.568;2022-09-11T00:58:04;15.70;99.90
51801;DHT22;37855;53.204;6.568;2022-09-11T01:00:31;15.70;99.90
51801;DHT22;37855;53.204;6.568;2022-09-11T01:02:57;15.70;99.90
51801;DHT22;37855;53.204;6.568;2022-09-11T01:05:25;15.60;99.90
51801;DHT22;37855;53.204;6.568;2022-09-11T01:07:53;15.70;99.90
51801;DHT22;37855;53.204;6.568;2022-09-11T01:10:25;15.70;99.90
51801;DHT22;37855;53.204;6.568;2022-09-11T01:13:04;15.60;99.90
51801;DHT22;37855;53.204;6.568;2022-09-11T01:15:45;15.60;99.90
51801;DHT22;37855;53.204;6.568;2022-09-11T01:18:28;15.60;99.90
51801;DHT22;37855;53.204;6.568;2022-09-11T01:24:02;15.50;99.90
51801;DHT22;37855;53.204;6.568;2022-09-11T01:26:37;15.50;99.90
51801;DHT22;37855;53.204;6.568;2022-09-11T01:29:08;15.50;99.90
51801;DHT22;37855;53.204;6.568;2022-09-11T01:34:59;15.50;99.90
51801;DHT22;37855;53.204;6.568;2022-09-11T01:37:38;15.50;99.90
51801;DHT22;37855;53.204;6.568;2022-09-11T01:40:18;15.50;99.90
51801;DHT22;37855;53.204;6.568;2022-09-11T01:42:49;15.40;99.90
51801;DHT22;37855;53.204;6.568;2022-09-11T01:45:17;15.40;99.90
51801;DHT22;37855;53.204;6.568;2022-09-11T01:47:45;15.40;99.90
51801;DHT22;37855;53.204;6.568;2022-09-11T01:50:14;15.30;99.90
51801;DHT22;37855;53.204;6.568;2022-09-11T01:52:52;15.30;99.90
51801;DHT22;37855;53.204;6.568;2022-09-11T01:58:01;15.30;99.90
51801;DHT22;37855;53.204;6.568;2022-09-11T02:00:28;15.30;99.90
51801;DHT22;37855;53.204;6.568;2022-09-11T02:03:07;15.30;99.90
51801;DHT22;37855;53.204;6.568;2022-09-11T02:05:46;15.30;99.90
51801;DHT22;37855;53.204;6.568;2022-09-11T02:08:26;15.30;99.90
51801;DHT22;37855;53.204;6.568;2022-09-11T02:11:02;15.30;99.90
51801;DHT22;37855;53.204;6.568;2022-09-11T02:13:45;15.30;99.90
51801;DHT22;37855;53.204;6.568;2022-09-11T02:19:13;15.20;99.90
51801;DHT22;37855;53.204;6.568;2022-09-11T02:21:40;15.20;99.90
51801;DHT22;37855;53.204;6.568;2022-09-11T02:24:06;15.20;99.90
51801;DHT22;37855;53.204;6.568;2022-09-11T02:26:38;15.20;99.90
51801;DHT22;37855;53.204;6.568;2022-09-11T02:29:05;15.20;99.90
51801;DHT22;37855;53.204;6.568;2022-09-11T02:31:32;15.20;99.90
51801;DHT22;37855;53.204;6.568;2022-09-11T02:33:59;15.10;99.90
51801;DHT22;37855;53.204;6.568;2022-09-11T02:45:05;15.10;99.90
51801;DHT22;37855;53.204;6.568;2022-09-11T02:50:44;15.10;99.90
51801;DHT22;37855;53.204;6.568;2022-09-11T02:53:41;15.10;99.90
51801;DHT22;37855;53.204;6.568;2022-09-11T02:56:33;15.10;99.90
51801;DHT22;37855;53.204;6.568;2022-09-11T02:59:25;15.10;99.90
51801;DHT22;37855;53.204;6.568;2022-09-11T03:01:55;15.10;99.90
51801;DHT22;37855;53.204;6.568;2022-09-11T03:04:23;15.10;99.90
51801;DHT22;37855;53.204;6.568;2022-09-11T03:06:50;15.10;99.90
51801;DHT22;37855;53.204;6.568;2022-09-11T03:09:17;15.20;99.90
51801;DHT22;37855;53.204;6.568;2022-09-11T03:11:43;15.20;99.90
51801;DHT22;37855;53.204;6.568;2022-09-11T03:14:09;15.10;99.90
51801;DHT22;37855;53.204;6.568;2022-09-11T03:16:35;15.20;99.90
51801;DHT22;37855;53.204;6.568;2022-09-11T03:19:04;15.20;99.90
51801;DHT22;37855;53.204;6.568;2022-09-11T03:21:30;15.10;99.90
51801;DHT22;37855;53.204;6.568;2022-09-11T03:23:56;15.10;99.90
51801;DHT22;37855;53.204;6.568;2022-09-11T03:26:22;15.10;99.90
51801;DHT22;37855;53.204;6.568;2022-09-11T03:28:48;15.10;99.90
51801;DHT22;37855;53.204;6.568;2022-09-11T03:31:15;15.10;99.90
51801;DHT22;37855;53.204;6.568;2022-09-11T03:33:41;15.10;99.90
51801;DHT22;37855;53.204;6.568;2022-09-11T03:36:08;15.10;99.90
51801;DHT22;37855;53.204;6.568;2022-09-11T03:38:34;15.10;99.90
51801;DHT22;37855;53.204;6.568;2022-09-11T03:41:00;15.10;99.90
51801;DHT22;37855;53.204;6.568;2022-09-11T03:43:28;15.10;99.90
51801;DHT22;37855;53.204;6.568;2022-09-11T03:45:53;15.10;99.90
51801;DHT22;37855;53.204;6.568;2022-09-11T03:48:19;15.00;99.90
51801;DHT22;37855;53.204;6.568;2022-09-11T03:50:45;15.10;99.90
51801;DHT22;37855;53.204;6.568;2022-09-11T03:53:12;15.10;99.90
51801;DHT22;37855;53.204;6.568;2022-09-11T03:55:38;15.00;99.90
51801;DHT22;37855;53.204;6.568;2022-09-11T03:58:04;15.00;99.90
51801;DHT22;37855;53.204;6.568;2022-09-11T04:00:31;15.00;99.90
51801;DHT22;37855;53.204;6.568;2022-09-11T04:02:57;15.00;99.90
51801;DHT22;37855;53.204;6.568;2022-09-11T04:05:23;15.00;99.90
51801;DHT22;37855;53.204;6.568;2022-09-11T04:07:51;15.00;99.90
51801;DHT22;37855;53.204;6.568;2022-09-11T04:10:18;14.90;99.90
51801;DHT22;37855;53.204;6.568;2022-09-11T04:12:45;14.90;99.90
51801;DHT22;37855;53.204;6.568;2022-09-11T04:15:11;14.90;99.90
51801;DHT22;37855;53.204;6.568;2022-09-11T04:17:36;14.90;99.90
51801;DHT22;37855;53.204;6.568;2022-09-11T04:20:03;14.90;99.90
51801;DHT22;37855;53.204;6.568;2022-09-11T04:22:29;14.90;99.90
51801;DHT22;37855;53.204;6.568;2022-09-11T04:24:54;14.90;99.90
51801;DHT22;37855;53.204;6.568;2022-09-11T04:27:22;14.90;99.90
51801;DHT22;37855;53.204;6.568;2022-09-11T04:29:48;14.90;99.90
51801;DHT22;37855;53.204;6.568;2022-09-11T04:32:14;14.90;99.90
51801;DHT22;37855;53.204;6.568;2022-09-11T04:34:40;14.90;99.90
51801;DHT22;37855;53.204;6.568;2022-09-11T04:37:06;14.90;99.90
51801;DHT22;37855;53.204;6.568;2022-09-11T04:39:31;14.90;99.90
51801;DHT22;37855;53.204;6.568;2022-09-11T04:41:58;14.90;99.90
51801;DHT22;37855;53.204;6.568;2022-09-11T04:44:27;14.80;99.90
51801;DHT22;37855;53.204;6.568;2022-09-11T04:46:53;14.90;99.90
51801;DHT22;37855;53.204;6.568;2022-09-11T04:49:19;14.90;99.90
51801;DHT22;37855;53.204;6.568;2022-09-11T04:51:44;14.90;99.90
51801;DHT22;37855;53.204;6.568;2022-09-11T04:54:13;14.90;99.90
51801;DHT22;37855;53.204;6.568;2022-09-11T04:56:39;14.90;99.90
51801;DHT22;37855;53.204;6.568;2022-09-11T04:59:07;14.90;99.90
51801;DHT22;37855;53.204;6.568;2022-09-11T05:01:38;14.90;99.90
51801;DHT22;37855;53.204;6.568;2022-09-11T05:04:04;14.90;99.90
51801;DHT22;37855;53.204;6.568;2022-09-11T05:06:30;14.90;99.90
51801;DHT22;37855;53.204;6.568;2022-09-11T05:09:01;14.90;99.90
51801;DHT22;37855;53.204;6.568;2022-09-11T05:11:28;14.90;99.90
51801;DHT22;37855;53.204;6.568;2022-09-11T05:13:54;14.90;99.90
51801;DHT22;37855;53.204;6.568;2022-09-11T05:16:23;14.90;99.90
51801;DHT22;37855;53.204;6.568;2022-09-11T05:18:50;14.90;99.90
51801;DHT22;37855;53.204;6.568;2022-09-11T05:21:17;14.90;99.90
51801;DHT22;37855;53.204;6.568;2022-09-11T05:23:48;14.90;99.90
51801;DHT22;37855;53.204;6.568;2022-09-11T05:26:20;14.90;99.90
51801;DHT22;37855;53.204;6.568;2022-09-11T05:28:46;14.90;99.90
51801;DHT22;37855;53.204;6.568;2022-09-11T05:31:14;14.90;99.90
51801;DHT22;37855;53.204;6.568;2022-09-11T05:33:41;14.90;99.90
51801;DHT22;37855;53.204;6.568;2022-09-11T05:36:08;14.90;99.90
51801;DHT22;37855;53.204;6.568;2022-09-11T05:38:34;14.90;99.90
51801;DHT22;37855;53.204;6.568;2022-09-11T05:41:01;14.90;99.90
51801;DHT22;37855;53.204;6.568;2022-09-11T05:43:27;14.90;99.90
51801;DHT22;37855;53.204;6.568;2022-09-11T05:45:57;14.90;99.90
51801;DHT22;37855;53.204;6.568;2022-09-11T05:48:23;14.90;99.90
51801;DHT22;37855;53.204;6.568;2022-09-11T05:50:59;14.90;99.90
51801;DHT22;37855;53.204;6.568;2022-09-11T05:53:26;14.90;99.90
51801;DHT22;37855;53.204;6.568;2022-09-11T05:55:53;14.90;99.90
51801;DHT22;37855;53.204;6.568;2022-09-11T05:58:19;14.90;99.90
51801;DHT22;37855;53.204;6.568;2022-09-11T06:00:46;14.90;99.90
51801;DHT22;37855;53.204;6.568;2022-09-11T06:03:16;14.90;99.90
51801;DHT22;37855;53.204;6.568;2022-09-11T06:05:42;14.90;99.90
51801;DHT22;37855;53.204;6.568;2022-09-11T06:08:09;15.00;99.90
51801;DHT22;37855;53.204;6.568;2022-09-11T06:10:36;15.00;99.90
51801;DHT22;37855;53.204;6.568;2022-09-11T06:13:02;15.00;99.90
51801;DHT22;37855;53.204;6.568;2022-09-11T06:15:28;15.00;99.90
51801;DHT22;37855;53.204;6.568;2022-09-11T06:17:55;15.00;99.90
51801;DHT22;37855;53.204;6.568;2022-09-11T06:20:20;15.10;99.90
51801;DHT22;37855;53.204;6.568;2022-09-11T06:22:46;15.10;99.90
51801;DHT22;37855;53.204;6.568;2022-09-11T06:25:12;15.10;99.90
51801;DHT22;37855;53.204;6.568;2022-09-11T06:27:38;15.20;99.90
51801;DHT22;37855;53.204;6.568;2022-09-11T06:30:04;15.20;99.90
51801;DHT22;37855;53.204;6.568;2022-09-11T06:32:29;15.20;99.90
51801;DHT22;37855;53.204;6.568;2022-09-11T06:34:55;15.20;99.90
51801;DHT22;37855;53.204;6.568;2022-09-11T06:37:20;15.30;99.90
51801;DHT22;37855;53.204;6.568;2022-09-11T06:39:46;15.30;99.90
51801;DHT22;37855;53.204;6.568;2022-09-11T06:42:12;15.40;99.90
51801;DHT22;37855;53.204;6.568;2022-09-11T06:44:37;15.40;99.90
51801;DHT22;37855;53.204;6.568;2022-09-11T06:47:04;15.50;99.90
51801;DHT22;37855;53.204;6.568;2022-09-11T06:49:30;15.50;99.90
51801;DHT22;37855;53.204;6.568;2022-09-11T06:51:56;15.70;99.90
51801;DHT22;37855;53.204;6.568;2022-09-11T06:54:23;15.60;99.90
51801;DHT22;37855;53.204;6.568;2022-09-11T06:56:49;15.70;99.90
51801;DHT22;37855;53.204;6.568;2022-09-11T06:59:15;15.70;99.90
51801;DHT22;37855;53.204;6.568;2022-09-11T07:01:40;15.80;99.90
51801;DHT22;37855;53.204;6.568;2022-09-11T07:04:06;15.80;99.90
51801;DHT22;37855;53.204;6.568;2022-09-11T07:06:32;15.90;99.90
51801;DHT22;37855;53.204;6.568;2022-09-11T07:09:00;16.00;99.90
51801;DHT22;37855;53.204;6.568;2022-09-11T07:11:28;16.00;99.90
51801;DHT22;37855;53.204;6.568;2022-09-11T07:13:56;16.10;99.90
51801;DHT22;37855;53.204;6.568;2022-09-11T07:16:22;16.20;99.90
51801;DHT22;37855;53.204;6.568;2022-09-11T07:18:48;16.30;99.90
51801;DHT22;37855;53.204;6.568;2022-09-11T07:21:17;16.40;99.90
51801;DHT22;37855;53.204;6.568;2022-09-11T07:23:50;16.40;99.90
51801;DHT22;37855;53.204;6.568;2022-09-11T07:26:17;16.50;99.90
51801;DHT22;37855;53.204;6.568;2022-09-11T07:28:43;16.50;99.90
51801;DHT22;37855;53.204;6.568;2022-09-11T07:34:09;16.70;99.90
51801;DHT22;37855;53.204;6.568;2022-09-11T07:36:35;16.70;99.90
51801;DHT22;37855;53.204;6.568;2022-09-11T07:39:02;16.80;99.90
51801;DHT22;37855;53.204;6.568;2022-09-11T07:41:28;16.80;99.90
51801;DHT22;37855;53.204;6.568;2022-09-11T07:43:57;16.90;99.90
51801;DHT22;37855;53.204;6.568;2022-09-11T07:46:27;16.90;99.90
51801;DHT22;37855;53.204;6.568;2022-09-11T07:48:55;17.00;99.90
51801;DHT22;37855;53.204;6.568;2022-09-11T07:51:21;17.10;99.90
51801;DHT22;37855;53.204;6.568;2022-09-11T07:53:49;17.10;99.90
51801;DHT22;37855;53.204;6.568;2022-09-11T07:56:20;17.20;99.90
51801;DHT22;37855;53.204;6.568;2022-09-11T07:58:48;17.20;99.90
51801;DHT22;37855;53.204;6.568;2022-09-11T08:01:16;17.30;99.90
51801;DHT22;37855;53.204;6.568;2022-09-11T08:03:43;17.40;99.90
51801;DHT22;37855;53.204;6.568;2022-09-11T08:06:12;17.40;99.90
51801;DHT22;37855;53.204;6.568;2022-09-11T08:08:39;17.50;99.90
51801;DHT22;37855;53.204;6.568;2022-09-11T08:11:13;17.60;99.90
51801;DHT22;37855;53.204;6.568;2022-09-11T08:13:39;17.70;99.90
51801;DHT22;37855;53.204;6.568;2022-09-11T08:16:06;17.70;99.90
51801;DHT22;37855;53.204;6.568;2022-09-11T08:18:33;17.80;99.90
51801;DHT22;37855;53.204;6.568;2022-09-11T08:21:06;18.10;99.90
51801;DHT22;37855;53.204;6.568;2022-09-11T08:23:34;18.00;99.90
51801;DHT22;37855;53.204;6.568;2022-09-11T08:26:05;18.00;99.90
51801;DHT22;37855;53.204;6.568;2022-09-11T08:28:31;18.10;99.90
51801;DHT22;37855;53.204;6.568;2022-09-11T08:30:57;18.20;99.90
51801;DHT22;37855;53.204;6.568;2022-09-11T08:33:23;18.30;99.90
51801;DHT22;37855;53.204;6.568;2022-09-11T08:35:49;18.30;99.90
51801;DHT22;37855;53.204;6.568;2022-09-11T08:38:15;18.40;99.90
51801;DHT22;37855;53.204;6.568;2022-09-11T08:40:41;18.60;99.90
51801;DHT22;37855;53.204;6.568;2022-09-11T08:43:17;18.70;99.90
51801;DHT22;37855;53.204;6.568;2022-09-11T08:45:45;18.80;99.90
51801;DHT22;37855;53.204;6.568;2022-09-11T08:48:13;18.90;99.90
51801;DHT22;37855;53.204;6.568;2022-09-11T08:50:41;19.00;99.90
51801;DHT22;37855;53.204;6.568;2022-09-11T08:53:16;19.10;99.90
51801;DHT22;37855;53.204;6.568;2022-09-11T08:55:51;19.10;99.90
51801;DHT22;37855;53.204;6.568;2022-09-11T09:01:25;19.20;99.90
51801;DHT22;37855;53.204;6.568;2022-09-11T09:04:50;19.20;99.90
51801;DHT22;37855;53.204;6.568;2022-09-11T09:10:02;19.30;99.90
51801;DHT22;37855;53.204;6.568;2022-09-11T09:12:41;19.20;99.90
51801;DHT22;37855;53.204;6.568;2022-09-11T09:18:17;19.50;99.90
51801;DHT22;37855;53.204;6.568;2022-09-11T09:20:48;19.50;99.90
51801;DHT22;37855;53.204;6.568;2022-09-11T09:23:20;19.70;99.90
51801;DHT22;37855;53.204;6.568;2022-09-11T09:25:49;19.70;99.90
51801;DHT22;37855;53.204;6.568;2022-09-11T09:28:19;19.80;99.90
51801;DHT22;37855;53.204;6.568;2022-09-11T09:30:51;19.90;99.90
51801;DHT22;37855;53.204;6.568;2022-09-11T09:33:30;20.00;99.90
51801;DHT22;37855;53.204;6.568;2022-09-11T09:36:13;20.00;99.90
51801;DHT22;37855;53.204;6.568;2022-09-11T09:38:39;20.10;99.90
51801;DHT22;37855;53.204;6.568;2022-09-11T09:43:55;20.30;99.90
51801;DHT22;37855;53.204;6.568;2022-09-11T09:49:02;20.40;99.90
51801;DHT22;37855;53.204;6.568;2022-09-11T09:51:27;20.30;99.90
51801;DHT22;37855;53.204;6.568;2022-09-11T09:54:00;20.30;99.90
51801;DHT22;37855;53.204;6.568;2022-09-11T09:56:28;20.30;99.90
51801;DHT22;37855;53.204;6.568;2022-09-11T10:01:49;20.20;99.90
51801;DHT22;37855;53.204;6.568;2022-09-11T10:04:17;20.10;99.90
51801;DHT22;37855;53.204;6.568;2022-09-11T10:06:45;19.90;99.90
51801;DHT22;37855;53.204;6.568;2022-09-11T10:12:05;19.60;99.90
51801;DHT22;37855;53.204;6.568;2022-09-11T10:14:42;19.40;99.90
51801;DHT22;37855;53.204;6.568;2022-09-11T10:17:21;19.20;99.90
51801;DHT22;37855;53.204;6.568;2022-09-11T10:19:47;19.20;99.90
51801;DHT22;37855;53.204;6.568;2022-09-11T10:25:14;19.00;99.90
51801;DHT22;37855;53.204;6.568;2022-09-11T10:32:57;18.90;99.90
51801;DHT22;37855;53.204;6.568;2022-09-11T10:35:25;18.90;99.90
51801;DHT22;37855;53.204;6.568;2022-09-11T10:38:04;18.90;99.90
51801;DHT22;37855;53.204;6.568;2022-09-11T10:40:32;19.00;99.90
51801;DHT22;37855;53.204;6.568;2022-09-11T10:42:58;19.00;99.90
51801;DHT22;37855;53.204;6.568;2022-09-11T10:45:23;19.00;99.90
51801;DHT22;37855;53.204;6.568;2022-09-11T10:47:49;19.10;99.90
51801;DHT22;37855;53.204;6.568;2022-09-11T10:55:33;19.20;99.90
51801;DHT22;37855;53.204;6.568;2022-09-11T10:58:15;19.30;99.90
51801;DHT22;37855;53.204;6.568;2022-09-11T11:00:42;19.30;99.90
51801;DHT22;37855;53.204;6.568;2022-09-11T11:03:17;19.30;99.90
51801;DHT22;37855;53.204;6.568;2022-09-11T11:20:19;20.20;99.90
51801;DHT22;37855;53.204;6.568;2022-09-11T11:23:10;20.30;99.90
51801;DHT22;37855;53.204;6.568;2022-09-11T11:36:08;20.20;99.90
51801;DHT22;37855;53.204;6.568;2022-09-11T11:41:36;20.10;99.90
51801;DHT22;37855;53.204;6.568;2022-09-11T11:44:05;20.10;99.90
51801;DHT22;37855;53.204;6.568;2022-09-11T11:46:38;20.10;99.90
51801;DHT22;37855;53.204;6.568;2022-09-11T11:51:55;20.20;99.90
51801;DHT22;37855;53.204;6.568;2022-09-11T11:54:35;20.30;99.90
51801;DHT22;37855;53.204;6.568;2022-09-11T11:57:12;20.30;99.90
51801;DHT22;37855;53.204;6.568;2022-09-11T12:00:00;20.30;99.90
51801;DHT22;37855;53.204;6.568;2022-09-11T12:05:20;20.40;99.90
51801;DHT22;37855;53.204;6.568;2022-09-11T12:07:49;20.50;99.90
51801;DHT22;37855;53.204;6.568;2022-09-11T12:10:30;20.60;99.90
51801;DHT22;37855;53.204;6.568;2022-09-11T12:13:05;20.70;99.90
51801;DHT22;37855;53.204;6.568;2022-09-11T12:15:32;20.90;99.90
51801;DHT22;37855;53.204;6.568;2022-09-11T12:20:41;21.10;99.90
51801;DHT22;37855;53.204;6.568;2022-09-11T12:28:37;21.50;99.90
51801;DHT22;37855;53.204;6.568;2022-09-11T12:31:08;21.70;99.90
51801;DHT22;37855;53.204;6.568;2022-09-11T12:33:48;21.80;99.90
51801;DHT22;37855;53.204;6.568;2022-09-11T12:36:28;22.00;99.90
51801;DHT22;37855;53.204;6.568;2022-09-11T12:39:23;22.10;99.90
51801;DHT22;37855;53.204;6.568;2022-09-11T12:41:50;22.10;99.90
51801;DHT22;37855;53.204;6.568;2022-09-11T12:57:51;22.70;94.50
51801;DHT22;37855;53.204;6.568;2022-09-11T13:00:59;22.60;94.80
51801;DHT22;37855;53.204;6.568;2022-09-11T13:03:20;22.60;93.10
51801;DHT22;37855;53.204;6.568;2022-09-11T13:05:53;22.40;94.20
51801;DHT22;37855;53.204;6.568;2022-09-11T13:08:21;22.20;95.40
51801;DHT22;37855;53.204;6.568;2022-09-11T13:10:48;22.10;96.20
51801;DHT22;37855;53.204;6.568;2022-09-11T13:13:38;21.70;99.90
51801;DHT22;37855;53.204;6.568;2022-09-11T13:16:24;21.50;99.90
51801;DHT22;37855;53.204;6.568;2022-09-11T13:18:58;21.30;99.90
51801;DHT22;37855;53.204;6.568;2022-09-11T13:21:24;21.10;99.90
51801;DHT22;37855;53.204;6.568;2022-09-11T13:23:50;21.10;99.90
51801;DHT22;37855;53.204;6.568;2022-09-11T13:26:26;21.10;99.90
51801;DHT22;37855;53.204;6.568;2022-09-11T13:28:57;21.10;99.90
51801;DHT22;37855;53.204;6.568;2022-09-11T13:31:31;21.00;99.90
51801;DHT22;37855;53.204;6.568;2022-09-11T13:34:06;21.00;99.90
51801;DHT22;37855;53.204;6.568;2022-09-11T13:36:37;20.90;99.90
51801;DHT22;37855;53.204;6.568;2022-09-11T13:39:03;20.90;99.90
51801;DHT22;37855;53.204;6.568;2022-09-11T13:41:32;20.80;99.90
51801;DHT22;37855;53.204;6.568;2022-09-11T13:44:00;20.60;99.90
51801;DHT22;37855;53.204;6.568;2022-09-11T13:46:28;20.60;99.90
51801;DHT22;37855;53.204;6.568;2022-09-11T13:51:43;20.60;99.90
51801;DHT22;37855;53.204;6.568;2022-09-11T13:54:25;20.80;99.90
51801;DHT22;37855;53.204;6.568;2022-09-11T14:01:57;21.20;99.90
51801;DHT22;37855;53.204;6.568;2022-09-11T14:04:27;21.30;99.90
51801;DHT22;37855;53.204;6.568;2022-09-11T14:06:54;21.40;99.90
51801;DHT22;37855;53.204;6.568;2022-09-11T14:09:23;21.50;99.90
51801;DHT22;37855;53.204;6.568;2022-09-11T14:11:49;21.70;99.90
51801;DHT22;37855;53.204;6.568;2022-09-11T14:14:24;21.80;99.90
51801;DHT22;37855;53.204;6.568;2022-09-11T14:16:57;22.00;99.90
51801;DHT22;37855;53.204;6.568;2022-09-11T14:19:30;22.00;97.80
51801;DHT22;37855;53.204;6.568;2022-09-11T14:21:56;22.00;99.50
51801;DHT22;37855;53.204;6.568;2022-09-11T14:26:57;21.90;99.00
51801;DHT22;37855;53.204;6.568;2022-09-11T14:29:24;21.90;98.10
51801;DHT22;37855;53.204;6.568;2022-09-11T14:31:53;21.90;99.40
51801;DHT22;37855;53.204;6.568;2022-09-11T14:34:25;22.00;99.90
51801;DHT22;37855;53.204;6.568;2022-09-11T14:37:01;22.10;99.90
51801;DHT22;37855;53.204;6.568;2022-09-11T14:39:35;22.20;99.90
51801;DHT22;37855;53.204;6.568;2022-09-11T14:42:03;22.30;99.90
51801;DHT22;37855;53.204;6.568;2022-09-11T14:44:32;22.30;99.40
51801;DHT22;37855;53.204;6.568;2022-09-11T14:46:58;22.30;99.00
51801;DHT22;37855;53.204;6.568;2022-09-11T14:49:24;22.20;97.80
51801;DHT22;37855;53.204;6.568;2022-09-11T14:51:57;22.10;98.70
51801;DHT22;37855;53.204;6.568;2022-09-11T14:54:24;22.10;98.10
51801;DHT22;37855;53.204;6.568;2022-09-11T14:56:50;21.90;98.80
51801;DHT22;37855;53.204;6.568;2022-09-11T14:59:17;21.80;99.50
51801;DHT22;37855;53.204;6.568;2022-09-11T15:01:43;21.80;99.30
51801;DHT22;37855;53.204;6.568;2022-09-11T15:04:19;21.70;99.20
51801;DHT22;37855;53.204;6.568;2022-09-11T15:06:53;21.70;99.80
51801;DHT22;37855;53.204;6.568;2022-09-11T15:09:22;21.70;99.90
51801;DHT22;37855;53.204;6.568;2022-09-11T15:11:49;21.70;99.90
51801;DHT22;37855;53.204;6.568;2022-09-11T15:14:17;21.80;99.90
51801;DHT22;37855;53.204;6.568;2022-09-11T15:16:45;22.00;99.90
51801;DHT22;37855;53.204;6.568;2022-09-11T15:19:11;22.10;99.90
51801;DHT22;37855;53.204;6.568;2022-09-11T15:21:36;22.20;99.80
51801;DHT22;37855;53.204;6.568;2022-09-11T15:24:03;22.30;98.70
51801;DHT22;37855;53.204;6.568;2022-09-11T15:26:30;22.30;98.20
51801;DHT22;37855;53.204;6.568;2022-09-11T15:28:56;22.20;97.30
51801;DHT22;37855;53.204;6.568;2022-09-11T15:31:21;22.20;98.00
51801;DHT22;37855;53.204;6.568;2022-09-11T15:33:52;22.20;98.30
51801;DHT22;37855;53.204;6.568;2022-09-11T15:36:19;22.10;97.50
51801;DHT22;37855;53.204;6.568;2022-09-11T15:38:52;21.90;95.80
51801;DHT22;37855;53.204;6.568;2022-09-11T15:41:20;21.80;95.70
51801;DHT22;37855;53.204;6.568;2022-09-11T15:43:50;21.60;95.90
51801;DHT22;37855;53.204;6.568;2022-09-11T15:46:20;21.60;97.00
51801;DHT22;37855;53.204;6.568;2022-09-11T15:48:47;21.50;98.20
51801;DHT22;37855;53.204;6.568;2022-09-11T15:51:23;21.40;99.40
51801;DHT22;37855;53.204;6.568;2022-09-11T15:53:48;21.20;99.90
51801;DHT22;37855;53.204;6.568;2022-09-11T15:56:17;21.10;99.90
51801;DHT22;37855;53.204;6.568;2022-09-11T15:58:45;21.00;99.90
51801;DHT22;37855;53.204;6.568;2022-09-11T16:01:30;20.90;99.90
51801;DHT22;37855;53.204;6.568;2022-09-11T16:03:57;20.90;99.90
51801;DHT22;37855;53.204;6.568;2022-09-11T16:06:25;20.80;99.90
51801;DHT22;37855;53.204;6.568;2022-09-11T16:08:55;20.80;99.90
51801;DHT22;37855;53.204;6.568;2022-09-11T16:11:21;20.80;99.90
51801;DHT22;37855;53.204;6.568;2022-09-11T16:13:52;20.90;99.90
51801;DHT22;37855;53.204;6.568;2022-09-11T16:16:18;21.00;99.90
51801;DHT22;37855;53.204;6.568;2022-09-11T16:18:45;21.00;99.90
51801;DHT22;37855;53.204;6.568;2022-09-11T16:21:12;21.10;99.90
51801;DHT22;37855;53.204;6.568;2022-09-11T16:23:38;21.20;99.90
51801;DHT22;37855;53.204;6.568;2022-09-11T16:26:10;21.20;99.90
51801;DHT22;37855;53.204;6.568;2022-09-11T16:28:38;21.20;99.90
51801;DHT22;37855;53.204;6.568;2022-09-11T16:31:05;21.20;99.90
51801;DHT22;37855;53.204;6.568;2022-09-11T16:33:32;21.20;99.90
51801;DHT22;37855;53.204;6.568;2022-09-11T16:36:01;21.20;99.90
51801;DHT22;37855;53.204;6.568;2022-09-11T16:38:31;21.00;99.90
51801;DHT22;37855;53.204;6.568;2022-09-11T16:41:15;21.00;99.90
51801;DHT22;37855;53.204;6.568;2022-09-11T16:43:49;20.90;99.90
51801;DHT22;37855;53.204;6.568;2022-09-11T16:46:20;20.80;99.90
51801;DHT22;37855;53.204;6.568;2022-09-11T16:48:47;20.80;99.90
51801;DHT22;37855;53.204;6.568;2022-09-11T16:51:14;20.80;99.90
51801;DHT22;37855;53.204;6.568;2022-09-11T16:53:40;20.90;99.90
51801;DHT22;37855;53.204;6.568;2022-09-11T16:56:11;20.90;99.90
51801;DHT22;37855;53.204;6.568;2022-09-11T16:58:38;20.90;99.90
51801;DHT22;37855;53.204;6.568;2022-09-11T17:01:05;20.90;99.90
51801;DHT22;37855;53.204;6.568;2022-09-11T17:03:31;20.80;99.90
51801;DHT22;37855;53.204;6.568;2022-09-11T17:05:56;20.80;99.90
51801;DHT22;37855;53.204;6.568;2022-09-11T17:08:22;20.70;99.90
51801;DHT22;37855;53.204;6.568;2022-09-11T17:10:53;20.70;99.90
51801;DHT22;37855;53.204;6.568;2022-09-11T17:13:20;20.70;99.90
51801;DHT22;37855;53.204;6.568;2022-09-11T17:15:47;20.70;99.90
51801;DHT22;37855;53.204;6.568;2022-09-11T17:18:13;20.60;99.90
51801;DHT22;37855;53.204;6.568;2022-09-11T17:20:38;20.60;99.90
51801;DHT22;37855;53.204;6.568;2022-09-11T17:23:05;20.50;99.90
51801;DHT22;37855;53.204;6.568;2022-09-11T17:25:32;20.50;99.90
51801;DHT22;37855;53.204;6.568;2022-09-11T17:27:58;20.40;99.90
51801;DHT22;37855;53.204;6.568;2022-09-11T17:30:24;20.40;99.90
51801;DHT22;37855;53.204;6.568;2022-09-11T17:32:50;20.30;99.90
51801;DHT22;37855;53.204;6.568;2022-09-11T17:35:16;20.20;99.90
51801;DHT22;37855;53.204;6.568;2022-09-11T17:37:42;20.10;99.90
51801;DHT22;37855;53.204;6.568;2022-09-11T17:40:08;20.00;99.90
51801;DHT22;37855;53.204;6.568;2022-09-11T17:42:34;20.00;99.90
51801;DHT22;37855;53.204;6.568;2022-09-11T17:45:00;20.00;99.90
51801;DHT22;37855;53.204;6.568;2022-09-11T17:47:31;20.00;99.90
51801;DHT22;37855;53.204;6.568;2022-09-11T17:49:57;19.90;99.90